Time;durP1;ratioP1;P1;durP2;ratioP2;P2;SDS_P1;SDS_P2;PMS_P1;PMS_P2;Temp;Humidity;BMP_temperature;BMP_pressure;BME280_temperature;BME280_humidity;BME280_pressure;Samples;Min_cycle;Max_cycle;Signal;HPM_P1;HPM_P2
2023/09/01 00:01:08;;;;;;;28.80;20.88;;;;;;;;;;5053165;28;20021;-54
2023/09/01 00:03:34;;;;;;;34.67;21.98;;;;;;;;;;5053314;28;20558;-58
2023/09/01 00:06:02;;;;;;;29.10;21.27;;;;;;;;;;5052772;28;20059;-59
2023/09/01 00:08:28;;;;;;;30.38;21.58;;;;;;;;;;5053074;28;20017;-63
2023/09/01 00:10:54;;;;;;;34.80;22.17;;;;;;;;;;5052912;28;20041;-59
2023/09/01 00:13:20;;;;;;;34.83;22.95;;;;;;;;;;5052957;28;20021;-60
2023/09/01 00:15:46;;;;;;;32.88;22.05;;;;;;;;;;5052146;28;20044;-58
2023/09/01 00:18:12;;;;;;;33.55;22.42;;;;;;;;;;5052902;28;20094;-58
2023/09/01 00:20:38;;;;;;;27.20;20.10;;;;;;;;;;5034422;28;20029;-55
2023/09/01 00:23:04;;;;;;;32.95;22.52;;;;;;;;;;5062472;28;20027;-57
2023/09/01 00:25:31;;;;;;;30.85;20.27;;;;;;;;;;5072265;28;20017;-59
2023/09/01 00:27:57;;;;;;;31.23;22.00;;;;;;;;;;5072493;28;20341;-56
2023/09/01 00:30:23;;;;;;;31.92;21.90;;;;;;;;;;5072485;28;20043;-58
2023/09/01 00:32:49;;;;;;;33.42;22.30;;;;;;;;;;5072806;28;20032;-59
2023/09/01 00:35:14;;;;;;;30.98;21.95;;;;;;;;;;5044364;28;20037;-58
2023/09/01 00:37:40;;;;;;;33.50;21.88;;;;;;;;;;5072656;28;20024;-58
2023/09/01 00:40:07;;;;;;;35.03;22.20;;;;;;;;;;5054796;28;20032;-56
2023/09/01 00:42:33;;;;;;;33.80;23.17;;;;;;;;;;5054590;28;20031;-58
2023/09/01 00:44:59;;;;;;;32.28;22.65;;;;;;;;;;5071909;28;20044;-55
2023/09/01 00:47:25;;;;;;;33.25;21.00;;;;;;;;;;5072759;28;20097;-59
2023/09/01 00:49:51;;;;;;;31.02;22.55;;;;;;;;;;5055096;28;20024;-57
2023/09/01 00:52:17;;;;;;;35.25;22.77;;;;;;;;;;5073037;28;20028;-59
2023/09/01 00:54:43;;;;;;;34.58;24.52;;;;;;;;;;5054113;28;20063;-55
2023/09/01 00:57:09;;;;;;;33.85;22.52;;;;;;;;;;5072441;28;20142;-54
2023/09/01 00:59:36;;;;;;;31.67;23.40;;;;;;;;;;5054081;28;20028;-59
2023/09/01 01:02:04;;;;;;;32.00;23.73;;;;;;;;;;5072196;28;20021;-59
2023/09/01 01:04:31;;;;;;;35.28;24.65;;;;;;;;;;5070672;28;20032;-59
2023/09/01 01:07:11;;;;;;;32.95;23.42;;;;;;;;;;5071880;28;20030;-58
2023/09/01 01:09:57;;;;;;;31.13;22.95;;;;;;;;;;5071960;28;20024;-57
2023/09/01 01:12:26;;;;;;;32.60;22.35;;;;;;;;;;5070608;28;20051;-57
2023/09/01 01:14:53;;;;;;;35.35;23.45;;;;;;;;;;5053210;28;20436;-56
2023/09/01 01:17:19;;;;;;;32.88;25.15;;;;;;;;;;5071766;28;20047;-59
2023/09/01 01:19:51;;;;;;;34.25;23.00;;;;;;;;;;5053638;28;20395;-59
2023/09/01 01:22:28;;;;;;;31.60;22.70;;;;;;;;;;5071747;28;20028;-58
2023/09/01 01:24:54;;;;;;;33.33;23.48;;;;;;;;;;5070930;28;20103;-56
2023/09/01 01:27:20;;;;;;;35.38;24.75;;;;;;;;;;5071632;28;20452;-59
2023/09/01 01:29:47;;;;;;;33.28;23.38;;;;;;;;;;5071606;28;20111;-58
2023/09/01 01:32:14;;;;;;;34.67;24.33;;;;;;;;;;5071167;28;20021;-54
2023/09/01 01:34:42;;;;;;;36.13;24.73;;;;;;;;;;5043888;28;20033;-57
2023/09/01 01:37:16;;;;;;;33.38;24.90;;;;;;;;;;5031483;28;20489;-57
2023/09/01 01:39:43;;;;;;;34.72;24.27;;;;;;;;;;5031691;28;20426;-56
2023/09/01 01:42:15;;;;;;;33.00;23.45;;;;;;;;;;5014185;28;20389;-58
2023/09/01 01:44:43;;;;;;;35.33;24.60;;;;;;;;;;5030740;28;20049;-55
2023/09/01 01:47:11;;;;;;;;;;;;;;;;;;5014038;28;20394;-55
2023/09/01 01:49:37;;;;;;;34.63;23.77;;;;;;;;;;5046246;28;19908;-60
2023/09/01 01:52:03;;;;;;;35.05;23.23;;;;;;;;;;5051383;28;20024;-56
2023/09/01 01:54:30;;;;;;;33.55;25.23;;;;;;;;;;5050752;28;20032;-60
2023/09/01 01:56:56;;;;;;;36.80;24.58;;;;;;;;;;5051431;28;20029;-58
2023/09/01 01:59:22;;;;;;;31.35;23.80;;;;;;;;;;5051225;28;20115;-53
2023/09/01 02:01:48;;;;;;;31.20;23.75;;;;;;;;;;5051411;28;20134;-57
2023/09/01 02:04:14;;;;;;;29.75;24.00;;;;;;;;;;5051730;28;20021;-58
2023/09/01 02:06:40;;;;;;;36.58;24.00;;;;;;;;;;5031155;28;20026;-58
2023/09/01 02:09:09;;;;;;;33.38;24.45;;;;;;;;;;5031125;28;20128;-58
2023/09/01 02:11:36;;;;;;;36.00;24.02;;;;;;;;;;5013702;28;20383;-59
2023/09/01 02:14:02;;;;;;;31.92;24.50;;;;;;;;;;5029575;28;20052;-56
2023/09/01 02:16:28;;;;;;;37.35;24.30;;;;;;;;;;5031096;28;20390;-55
2023/09/01 02:18:54;;;;;;;32.40;23.88;;;;;;;;;;5031321;28;20063;-54
2023/09/01 02:21:21;;;;;;;32.70;22.98;;;;;;;;;;5031383;28;20025;-56
2023/09/01 02:23:47;;;;;;;34.15;23.10;;;;;;;;;;5031127;28;20029;-56
2023/09/01 02:26:18;;;;;;;33.75;24.77;;;;;;;;;;5012764;28;20080;-55
2023/09/01 02:28:44;;;;;;;34.58;25.25;;;;;;;;;;5031108;28;20049;-57
2023/09/01 02:31:10;;;;;;;32.85;23.73;;;;;;;;;;5013259;28;20033;-59
2023/09/01 02:33:36;;;;;;;31.73;24.10;;;;;;;;;;5030806;28;20029;-57
2023/09/01 02:36:21;;;;;;;34.20;23.48;;;;;;;;;;5054638;28;20127;-58
2023/09/01 02:38:47;;;;;;;38.08;23.05;;;;;;;;;;5070900;28;20028;-58
2023/09/01 02:41:13;;;;;;;33.80;22.77;;;;;;;;;;5071043;28;20020;-56
2023/09/01 02:43:39;;;;;;;33.22;22.73;;;;;;;;;;5052582;28;20386;-62
2023/09/01 02:46:04;;;;;;;35.28;23.40;;;;;;;;;;5074659;28;20051;-56
2023/09/01 02:48:31;;;;;;;37.10;23.67;;;;;;;;;;5075688;28;20389;-55
2023/09/01 02:50:58;;;;;;;35.90;25.02;;;;;;;;;;5057797;28;20051;-58
2023/09/01 02:53:24;;;;;;;33.03;24.40;;;;;;;;;;5075601;28;20032;-56
2023/09/01 02:55:50;;;;;;;35.53;24.85;;;;;;;;;;5074201;28;20020;-57
2023/09/01 02:58:16;;;;;;;35.67;24.85;;;;;;;;;;5074894;28;20362;-58
2023/09/01 03:00:44;;;;;;;39.10;24.15;;;;;;;;;;5075064;28;20028;-57
2023/09/01 03:03:10;;;;;;;34.40;23.98;;;;;;;;;;5057051;28;20025;-58
2023/09/01 03:05:36;;;;;;;35.33;23.50;;;;;;;;;;5073340;28;20071;-56
2023/09/01 03:08:02;;;;;;;37.47;25.30;;;;;;;;;;5074879;28;20040;-57
2023/09/01 03:10:28;;;;;;;34.17;24.15;;;;;;;;;;5074888;28;20020;-55
2023/09/01 03:12:54;;;;;;;34.50;24.02;;;;;;;;;;5074002;28;20055;-56
2023/09/01 03:15:22;;;;;;;36.00;26.15;;;;;;;;;;5073940;28;20029;-57
2023/09/01 03:17:48;;;;;;;34.15;24.20;;;;;;;;;;5074066;28;20412;-58
2023/09/01 03:20:14;;;;;;;36.95;24.05;;;;;;;;;;5056236;28;20036;-56
2023/09/01 03:22:40;;;;;;;35.22;24.50;;;;;;;;;;5074131;28;20028;-59
2023/09/01 03:25:09;;;;;;;36.88;25.48;;;;;;;;;;5073317;28;20078;-57
2023/09/01 03:27:39;;;;;;;38.63;26.10;;;;;;;;;;5055962;28;20025;-57
2023/09/01 03:30:06;;;;;;;37.60;25.25;;;;;;;;;;5055929;28;20033;-56
2023/09/01 03:32:36;;;;;;;39.83;25.98;;;;;;;;;;5072844;28;20413;-58
2023/09/01 03:35:02;;;;;;;36.78;24.45;;;;;;;;;;5059719;28;20025;-53
2023/09/01 03:37:28;;;;;;;40.22;26.67;;;;;;;;;;5032448;28;20026;-58
2023/09/01 03:39:54;;;;;;;36.58;25.42;;;;;;;;;;5032714;28;20077;-58
2023/09/01 03:42:20;;;;;;;40.72;24.52;;;;;;;;;;5033774;28;20034;-55
2023/09/01 03:44:46;;;;;;;35.28;24.25;;;;;;;;;;5033219;28;20539;-56
2023/09/01 03:47:13;;;;;;;36.75;25.35;;;;;;;;;;5033687;28;20112;-58
2023/09/01 03:49:39;;;;;;;42.08;26.05;;;;;;;;;;5034133;28;20040;-57
2023/09/01 03:52:05;;;;;;;36.38;24.73;;;;;;;;;;5033700;28;20045;-57
2023/09/01 03:54:31;;;;;;;40.55;27.05;;;;;;;;;;5033017;28;20021;-59
2023/09/01 03:56:57;;;;;;;38.00;24.80;;;;;;;;;;5033090;28;20395;-51
2023/09/01 03:59:23;;;;;;;36.35;24.08;;;;;;;;;;5033583;28;20060;-55
2023/09/01 04:01:49;;;;;;;36.22;24.85;;;;;;;;;;5033502;28;20026;-59
2023/09/01 04:04:15;;;;;;;37.28;25.85;;;;;;;;;;5062415;28;20110;-59
2023/09/01 04:06:41;;;;;;;38.47;26.67;;;;;;;;;;5072965;28;20495;-57
2023/09/01 04:09:08;;;;;;;37.83;24.80;;;;;;;;;;5072971;28;20055;-56
2023/09/01 04:11:34;;;;;;;40.60;26.52;;;;;;;;;;5073219;28;20063;-58
2023/09/01 04:14:01;;;;;;;38.47;24.40;;;;;;;;;;5072632;28;20047;-58
2023/09/01 04:16:27;;;;;;;39.15;25.77;;;;;;;;;;5073234;28;20052;-56
2023/09/01 04:18:56;;;;;;;34.95;25.13;;;;;;;;;;5055243;28;20016;-57
2023/09/01 04:21:23;;;;;;;39.13;25.30;;;;;;;;;;5073068;28;20093;-56
2023/09/01 04:23:49;;;;;;;41.38;26.10;;;;;;;;;;5073067;28;20028;-57
2023/09/01 04:26:15;;;;;;;37.67;24.13;;;;;;;;;;5072424;28;20051;-58
2023/09/01 04:28:41;;;;;;;38.08;24.85;;;;;;;;;;5072961;28;20104;-56
2023/09/01 04:31:17;;;;;;;38.05;26.17;;;;;;;;;;5073012;28;20024;-56
2023/09/01 04:33:43;;;;;;;38.38;24.90;;;;;;;;;;5070979;28;20028;-58
2023/09/01 04:36:09;;;;;;;36.40;24.88;;;;;;;;;;5022956;28;20025;-57
2023/09/01 04:38:35;;;;;;;41.78;27.27;;;;;;;;;;5032559;28;20472;-57
2023/09/01 04:41:01;;;;;;;36.03;23.90;;;;;;;;;;5032760;28;20056;-58
2023/09/01 04:43:28;;;;;;;40.72;25.02;;;;;;;;;;5032747;28;20083;-59
2023/09/01 04:45:54;;;;;;;43.33;28.92;;;;;;;;;;5031798;28;20147;-59
2023/09/01 04:48:20;;;;;;;40.40;26.92;;;;;;;;;;5032058;28;20083;-58
2023/09/01 04:50:47;;;;;;;41.55;28.98;;;;;;;;;;5032553;28;20034;-59
2023/09/01 04:53:13;;;;;;;41.88;27.17;;;;;;;;;;5033080;28;20026;-58
2023/09/01 04:55:39;;;;;;;35.92;25.42;;;;;;;;;;5031932;28;20033;-56
2023/09/01 04:58:05;;;;;;;36.83;25.45;;;;;;;;;;5032417;28;20525;-56
2023/09/01 05:00:31;;;;;;;36.97;24.63;;;;;;;;;;5032349;28;20041;-58
2023/09/01 05:02:57;;;;;;;33.85;24.23;;;;;;;;;;5039600;28;20028;-57
2023/09/01 05:05:24;;;;;;;35.97;24.55;;;;;;;;;;5051451;28;20396;-55
2023/09/01 05:07:50;;;;;;;38.20;24.98;;;;;;;;;;5052320;28;20032;-58
2023/09/01 05:10:16;;;;;;;34.47;24.73;;;;;;;;;;5051913;28;20029;-57
2023/09/01 05:12:42;;;;;;;35.55;24.55;;;;;;;;;;5051727;28;20044;-56
2023/09/01 05:15:08;;;;;;;36.53;23.13;;;;;;;;;;5032958;28;20029;-56
2023/09/01 05:17:34;;;;;;;35.40;22.88;;;;;;;;;;5051605;28;20104;-61
2023/09/01 05:20:00;;;;;;;32.33;21.90;;;;;;;;;;5051675;28;20508;-57
2023/09/01 05:22:26;;;;;;;32.55;23.10;;;;;;;;;;5033309;28;20064;-56
2023/09/01 05:24:53;;;;;;;32.47;21.65;;;;;;;;;;5050897;28;20493;-58
2023/09/01 05:27:19;;;;;;;31.13;21.63;;;;;;;;;;5064238;28;20020;-54
2023/09/01 05:29:48;;;;;;;29.63;20.63;;;;;;;;;;5071665;28;20093;-55
2023/09/01 05:32:15;;;;;;;35.55;21.80;;;;;;;;;;5071837;28;20028;-59
2023/09/01 05:34:41;;;;;;;35.58;22.27;;;;;;;;;;5064075;28;20404;-57
2023/09/01 05:37:08;;;;;;;30.10;18.95;;;;;;;;;;5031385;28;20108;-57
2023/09/01 05:39:34;;;;;;;27.65;18.48;;;;;;;;;;5031570;28;20112;-56
2023/09/01 05:42:00;;;;;;;27.83;18.85;;;;;;;;;;5031354;28;20033;-58
2023/09/01 05:44:26;;;;;;;26.85;17.73;;;;;;;;;;5030770;28;20026;-58
2023/09/01 05:47:05;;;;;;;27.65;18.23;;;;;;;;;;5031660;28;20075;-54
2023/09/01 05:49:34;;;;;;;;;;;;;;;;;;5031816;28;20462;-51
2023/09/01 05:52:00;;;;;;;26.13;16.63;;;;;;;;;;5031390;28;20366;-51
2023/09/01 05:54:26;;;;;;;27.15;16.52;;;;;;;;;;5013061;28;20112;-56
2023/09/01 05:56:52;;;;;;;24.70;16.58;;;;;;;;;;5044468;28;20037;-54
2023/09/01 05:59:19;;;;;;;24.05;15.93;;;;;;;;;;5051684;28;20032;-55
2023/09/01 06:01:46;;;;;;;22.52;16.02;;;;;;;;;;5033265;28;20083;-57
2023/09/01 06:04:12;;;;;;;23.80;15.57;;;;;;;;;;5050681;28;20029;-49
2023/09/01 06:06:38;;;;;;;23.10;14.57;;;;;;;;;;5050948;28;20020;-50
2023/09/01 06:09:04;;;;;;;22.25;15.40;;;;;;;;;;5051068;28;20032;-52
2023/09/01 06:11:30;;;;;;;22.98;15.88;;;;;;;;;;5050930;28;20396;-53
2023/09/01 06:13:56;;;;;;;23.85;16.17;;;;;;;;;;5050234;28;20370;-47
2023/09/01 06:16:22;;;;;;;22.95;16.15;;;;;;;;;;5050849;28;20099;-55
2023/09/01 06:18:48;;;;;;;24.15;16.23;;;;;;;;;;5050323;28;20055;-56
2023/09/01 06:21:17;;;;;;;21.55;14.88;;;;;;;;;;5050584;28;20036;-53
2023/09/01 06:23:47;;;;;;;25.25;17.52;;;;;;;;;;5051085;28;20025;-53
2023/09/01 06:26:13;;;;;;;24.55;15.85;;;;;;;;;;5050203;28;20021;-55
2023/09/01 06:28:42;;;;;;;25.38;15.70;;;;;;;;;;5050599;28;20647;-56
2023/09/01 06:31:09;;;;;;;23.73;13.88;;;;;;;;;;5050545;28;20101;-56
2023/09/01 06:33:35;;;;;;;22.45;14.88;;;;;;;;;;5032755;28;20052;-51
2023/09/01 06:36:02;;;;;;;21.73;15.23;;;;;;;;;;5049771;28;20473;-53
2023/09/01 06:38:27;;;;;;;22.50;14.57;;;;;;;;;;5051375;28;20033;-55
2023/09/01 06:40:53;;;;;;;26.20;14.32;;;;;;;;;;5051728;28;20035;-54
2023/09/01 06:43:20;;;;;;;23.60;13.60;;;;;;;;;;5050314;28;20021;-54
2023/09/01 06:45:46;;;;;;;20.65;13.25;;;;;;;;;;5049485;28;20025;-50
2023/09/01 06:48:12;;;;;;;22.83;14.18;;;;;;;;;;5050300;28;20393;-54
2023/09/01 06:50:38;;;;;;;21.02;13.45;;;;;;;;;;5050439;28;20021;-55
2023/09/01 06:53:05;;;;;;;22.05;13.57;;;;;;;;;;5050002;28;20517;-52
2023/09/01 06:55:31;;;;;;;21.52;13.15;;;;;;;;;;5049299;28;20059;-57
2023/09/01 06:57:57;;;;;;;21.23;13.55;;;;;;;;;;5049655;28;20124;-56
2023/09/01 07:00:23;;;;;;;22.88;14.88;;;;;;;;;;5049985;28;20032;-57
2023/09/01 07:02:49;;;;;;;22.83;14.38;;;;;;;;;;5050122;28;20382;-55
2023/09/01 07:05:18;;;;;;;23.67;14.50;;;;;;;;;;5048967;28;20020;-60
2023/09/01 07:07:44;;;;;;;19.70;13.05;;;;;;;;;;5050125;28;20025;-59
2023/09/01 07:10:10;;;;;;;22.15;13.43;;;;;;;;;;5051246;28;20033;-55
2023/09/01 07:12:36;;;;;;;22.98;16.98;;;;;;;;;;5069009;28;20043;-55
2023/09/01 07:15:04;;;;;;;19.83;13.95;;;;;;;;;;5071172;28;20538;-58
2023/09/01 07:17:30;;;;;;;19.58;13.52;;;;;;;;;;5070426;28;20024;-55
2023/09/01 07:19:56;;;;;;;20.02;13.13;;;;;;;;;;5070031;28;20036;-59
2023/09/01 07:22:22;;;;;;;20.98;13.85;;;;;;;;;;5070301;28;20044;-59
2023/09/01 07:24:48;;;;;;;19.83;12.95;;;;;;;;;;5069696;28;20326;-61
2023/09/01 07:27:14;;;;;;;20.85;13.30;;;;;;;;;;5054676;28;20029;-59
2023/09/01 07:29:41;;;;;;;20.83;13.30;;;;;;;;;;5049950;28;20346;-59
2023/09/01 07:32:07;;;;;;;20.30;13.43;;;;;;;;;;5052087;28;20032;-61
2023/09/01 07:34:34;;;;;;;22.73;12.73;;;;;;;;;;5052658;28;20035;-59
2023/09/01 07:37:00;;;;;;;25.98;13.68;;;;;;;;;;5053476;28;20051;-57
2023/09/01 07:39:26;;;;;;;20.67;12.80;;;;;;;;;;5053048;28;20553;-60
2023/09/01 07:41:52;;;;;;;20.40;12.40;;;;;;;;;;5060551;28;20021;-58
2023/09/01 07:44:20;;;;;;;18.27;12.60;;;;;;;;;;5072495;28;20104;-60
2023/09/01 07:46:46;;;;;;;18.77;13.37;;;;;;;;;;5072952;28;20052;-59
2023/09/01 07:49:12;;;;;;;18.98;12.40;;;;;;;;;;5063494;28;20306;-61
2023/09/01 07:51:38;;;;;;;18.75;12.85;;;;;;;;;;5053097;28;20504;-59
2023/09/01 07:54:04;;;;;;;21.27;12.75;;;;;;;;;;5052119;28;20013;-59
2023/09/01 07:56:32;;;;;;;17.92;12.13;;;;;;;;;;5052951;28;20477;-59
2023/09/01 07:58:58;;;;;;;20.13;11.65;;;;;;;;;;5066419;28;20119;-59
2023/09/01 08:01:24;;;;;;;18.90;12.55;;;;;;;;;;5073270;28;20103;-59
2023/09/01 08:03:50;;;;;;;20.17;12.82;;;;;;;;;;5054827;28;20413;-58
2023/09/01 08:06:16;;;;;;;19.40;12.60;;;;;;;;;;5054333;28;20048;-56
2023/09/01 08:08:42;;;;;;;18.60;12.57;;;;;;;;;;5072852;28;20040;-59
2023/09/01 08:11:08;;;;;;;20.15;12.93;;;;;;;;;;5072949;28;20442;-59
2023/09/01 08:13:34;;;;;;;22.90;12.50;;;;;;;;;;5071228;28;20024;-59
2023/09/01 08:16:00;;;;;;;18.60;12.13;;;;;;;;;;5072869;28;20115;-59
2023/09/01 08:18:26;;;;;;;20.98;12.25;;;;;;;;;;5074120;28;20036;-59
2023/09/01 08:20:52;;;;;;;21.00;12.68;;;;;;;;;;5074645;28;20105;-56
2023/09/01 08:23:21;;;;;;;20.48;11.40;;;;;;;;;;5074943;28;20059;-55
2023/09/01 08:25:47;;;;;;;20.27;12.27;;;;;;;;;;5074736;28;20044;-61
2023/09/01 08:28:13;;;;;;;20.08;12.00;;;;;;;;;;5072970;28;20025;-58
2023/09/01 08:30:39;;;;;;;20.30;11.60;;;;;;;;;;5072737;28;20024;-59
2023/09/01 08:33:05;;;;;;;18.05;11.65;;;;;;;;;;5072929;28;20025;-59
2023/09/01 08:35:31;;;;;;;17.92;11.68;;;;;;;;;;5051209;28;20083;-57
2023/09/01 08:37:57;;;;;;;18.33;12.00;;;;;;;;;;5032915;28;20025;-59
2023/09/01 08:40:23;;;;;;;17.02;11.43;;;;;;;;;;5032797;28;20509;-52
2023/09/01 08:42:49;;;;;;;18.63;12.23;;;;;;;;;;5050355;28;20035;-56
2023/09/01 08:45:16;;;;;;;18.02;12.18;;;;;;;;;;5071509;28;20043;-59
2023/09/01 08:47:46;;;;;;;20.70;12.18;;;;;;;;;;5054222;28;20424;-57
2023/09/01 08:50:13;;;;;;;17.67;11.32;;;;;;;;;;5072325;28;20035;-57
2023/09/01 08:52:39;;;;;;;21.75;12.10;;;;;;;;;;5054172;28;20035;-52
2023/09/01 08:55:05;;;;;;;17.92;12.02;;;;;;;;;;5071307;28;20028;-51
2023/09/01 08:57:32;;;;;;;18.20;11.68;;;;;;;;;;5072143;28;20076;-54
2023/09/01 08:59:58;;;;;;;17.25;11.20;;;;;;;;;;5071925;28;20044;-53
2023/09/01 09:02:24;;;;;;;16.33;11.32;;;;;;;;;;5054073;28;20478;-51
2023/09/01 09:04:50;;;;;;;16.50;11.57;;;;;;;;;;5071421;28;20685;-54
2023/09/01 09:07:17;;;;;;;16.50;11.35;;;;;;;;;;5071868;28;20021;-51
2023/09/01 09:09:55;;;;;;;17.67;11.10;;;;;;;;;;5071864;28;20032;-52
2023/09/01 09:12:34;;;;;;;18.55;11.77;;;;;;;;;;5070970;28;20054;-56
2023/09/01 09:15:00;;;;;;;17.17;11.00;;;;;;;;;;5070943;28;20025;-51
2023/09/01 09:17:39;;;;;;;16.90;11.55;;;;;;;;;;5071629;28;20040;-51
2023/09/01 09:20:06;;;;;;;17.52;10.90;;;;;;;;;;5071584;28;20029;-55
2023/09/01 09:22:32;;;;;;;17.02;11.18;;;;;;;;;;5072086;28;20037;-51
2023/09/01 09:24:58;;;;;;;16.58;11.30;;;;;;;;;;5071068;28;20032;-53
2023/09/01 09:27:25;;;;;;;17.75;11.90;;;;;;;;;;5074098;28;20186;-51
2023/09/01 09:29:51;;;;;;;17.63;11.63;;;;;;;;;;5073288;28;20028;-56
2023/09/01 09:32:24;;;;;;;16.40;11.30;;;;;;;;;;5072231;28;20020;-56
2023/09/01 09:35:07;;;;;;;17.48;11.38;;;;;;;;;;5061189;28;20017;-49
2023/09/01 09:37:34;;;;;;;18.65;10.98;;;;;;;;;;5031407;28;20048;-51
2023/09/01 09:40:18;;;;;;;16.63;11.20;;;;;;;;;;5039077;28;20029;-55
2023/09/01 09:42:45;;;;;;;16.90;11.13;;;;;;;;;;5050929;28;20064;-51
2023/09/01 09:45:28;;;;;;;19.02;11.85;;;;;;;;;;5023363;28;20025;-53
2023/09/01 09:47:58;;;;;;;19.17;12.20;;;;;;;;;;5051384;28;20032;-48
2023/09/01 09:50:27;;;;;;;17.15;11.75;;;;;;;;;;5033770;28;20021;-50
2023/09/01 09:52:58;;;;;;;16.52;11.20;;;;;;;;;;5050996;28;20331;-49
2023/09/01 09:55:29;;;;;;;15.95;10.90;;;;;;;;;;5049920;28;20021;-53
2023/09/01 09:58:05;;;;;;;18.17;12.15;;;;;;;;;;5064382;28;20577;-58
2023/09/01 10:00:32;;;;;;;16.77;11.90;;;;;;;;;;5073123;28;20028;-57
2023/09/01 10:03:03;;;;;;;16.75;11.70;;;;;;;;;;5072494;28;20021;-54
2023/09/01 10:05:31;;;;;;;16.17;11.40;;;;;;;;;;5059010;28;20033;-54
2023/09/01 10:07:57;;;;;;;16.88;11.82;;;;;;;;;;5051027;28;20397;-53
2023/09/01 10:10:23;;;;;;;17.85;11.70;;;;;;;;;;5051526;28;20071;-53
2023/09/01 10:12:51;;;;;;;16.23;11.07;;;;;;;;;;5032968;28;20148;-56
2023/09/01 10:15:18;;;;;;;15.95;11.27;;;;;;;;;;5049643;28;20786;-50
2023/09/01 10:17:47;;;;;;;16.35;11.15;;;;;;;;;;5050973;28;20428;-53
2023/09/01 10:20:13;;;;;;;18.73;11.40;;;;;;;;;;5050242;28;20090;-53
2023/09/01 10:22:39;;;;;;;17.13;11.43;;;;;;;;;;5032160;28;20017;-54
2023/09/01 10:25:17;;;;;;;17.17;10.57;;;;;;;;;;5062610;28;20488;-50
2023/09/01 10:28:02;;;;;;;16.07;10.90;;;;;;;;;;5070581;28;20121;-51
2023/09/01 10:30:29;;;;;;;16.05;10.68;;;;;;;;;;5071386;28;20267;-53
2023/09/01 10:33:07;;;;;;;16.05;11.75;;;;;;;;;;5070955;28;20033;-50
2023/09/01 10:35:33;;;;;;;;;;;;;;;;;;5048457;28;20128;-50
2023/09/01 10:38:08;;;;;;;19.00;10.85;;;;;;;;;;5030061;28;20466;-50
2023/09/01 10:40:44;;;;;;;18.60;12.48;;;;;;;;;;5042523;28;20035;-53
2023/09/01 10:43:13;;;;;;;16.77;11.70;;;;;;;;;;5069871;28;20055;-52
2023/09/01 10:45:42;;;;;;;18.23;11.32;;;;;;;;;;5069128;28;20017;-52
2023/09/01 10:48:13;;;;;;;16.95;11.07;;;;;;;;;;5069967;28;20094;-49
2023/09/01 10:50:41;;;;;;;16.58;11.10;;;;;;;;;;5070505;28;20064;-53
2023/09/01 10:53:26;;;;;;;16.75;11.27;;;;;;;;;;5070135;28;20025;-47
2023/09/01 10:56:05;;;;;;;16.27;11.23;;;;;;;;;;5069226;28;20028;-49
2023/09/01 10:58:31;;;;;;;;;;;;;;;;;;5070499;28;20029;-48
2023/09/01 11:01:08;;;;;;;18.25;12.40;;;;;;;;;;5070232;28;19927;-52
2023/09/01 11:03:37;;;;;;;23.13;12.10;;;;;;;;;;5069980;28;20036;-48
2023/09/01 11:06:03;;;;;;;16.13;11.40;;;;;;;;;;5071797;28;20765;-49
2023/09/01 11:08:31;;;;;;;17.77;11.15;;;;;;;;;;5074091;28;20031;-54
2023/09/01 11:11:06;;;;;;;17.15;11.70;;;;;;;;;;5069235;28;20056;-50
2023/09/01 11:13:32;;;;;;;16.02;11.00;;;;;;;;;;5034291;28;20167;-48
2023/09/01 11:16:07;;;;;;;16.75;11.20;;;;;;;;;;5033101;28;20517;-51
2023/09/01 11:18:33;;;;;;;16.27;10.60;;;;;;;;;;5033795;28;20030;-52
2023/09/01 11:21:00;;;;;;;18.23;11.40;;;;;;;;;;5033334;28;20091;-50
2023/09/01 11:23:30;;;;;;;18.02;11.07;;;;;;;;;;5033720;28;20030;-54
2023/09/01 11:25:56;;;;;;;17.20;10.63;;;;;;;;;;5032994;28;20093;-49
2023/09/01 11:28:22;;;;;;;16.35;10.90;;;;;;;;;;5016174;28;20021;-48
2023/09/01 11:31:02;;;;;;;16.52;10.35;;;;;;;;;;5034050;28;20052;-50
2023/09/01 11:33:29;;;;;;;16.90;10.60;;;;;;;;;;5045920;28;20101;-48
2023/09/01 11:36:10;;;;;;;16.23;11.10;;;;;;;;;;5052701;28;20087;-51
2023/09/01 11:38:36;;;;;;;18.63;11.00;;;;;;;;;;5053824;28;20104;-50
2023/09/01 11:41:07;;;;;;;17.83;11.48;;;;;;;;;;5053785;28;20075;-53
2023/09/01 11:43:33;;;;;;;15.80;10.57;;;;;;;;;;5053617;28;20449;-47
2023/09/01 11:45:59;;;;;;;17.92;10.70;;;;;;;;;;5052825;28;20052;-59
2023/09/01 11:48:26;;;;;;;17.92;11.07;;;;;;;;;;5054295;28;20029;-53
2023/09/01 11:50:55;;;;;;;17.70;10.98;;;;;;;;;;5053530;28;20025;-49
2023/09/01 11:53:25;;;;;;;16.65;10.63;;;;;;;;;;5035519;28;20116;-47
2023/09/01 11:55:51;;;;;;;15.57;10.10;;;;;;;;;;5052462;28;20048;-49
2023/09/01 11:58:18;;;;;;;17.08;11.13;;;;;;;;;;5052908;28;20025;-51
2023/09/01 12:00:44;;;;;;;19.55;11.13;;;;;;;;;;5052833;28;20044;-51
2023/09/01 12:03:10;;;;;;;16.38;11.43;;;;;;;;;;5055058;28;20037;-47
2023/09/01 12:05:37;;;;;;;16.90;10.57;;;;;;;;;;4701106;28;9999648;-51
2023/09/01 12:08:04;;;;;;;16.95;10.45;;;;;;;;;;5040810;28;20021;-45
2023/09/01 12:10:31;;;;;;;20.10;10.75;;;;;;;;;;5047615;28;20104;-51
2023/09/01 12:13:12;;;;;;;17.50;10.73;;;;;;;;;;5029453;28;20448;-62
2023/09/01 12:15:57;;;;;;;17.08;11.32;;;;;;;;;;5028742;28;20111;-55
2023/09/01 12:18:35;;;;;;;16.48;9.95;;;;;;;;;;5027861;28;20036;-56
2023/09/01 12:21:02;;;;;;;17.83;10.77;;;;;;;;;;5029574;28;20029;-58
2023/09/01 12:23:32;;;;;;;16.05;10.35;;;;;;;;;;5031656;28;20099;-57
2023/09/01 12:25:58;;;;;;;18.52;10.38;;;;;;;;;;5048325;28;20028;-56
2023/09/01 12:28:25;;;;;;;15.18;9.98;;;;;;;;;;5048701;28;20446;-54
2023/09/01 12:30:51;;;;;;;16.38;10.55;;;;;;;;;;5048444;28;20036;-55
2023/09/01 12:33:17;;;;;;;15.13;9.60;;;;;;;;;;5049064;28;20024;-56
2023/09/01 12:35:43;;;;;;;17.73;10.70;;;;;;;;;;5042984;28;20124;-55
2023/09/01 12:38:09;;;;;;;18.08;10.23;;;;;;;;;;5030735;28;20501;-55
2023/09/01 12:40:35;;;;;;;18.40;9.98;;;;;;;;;;5048515;28;20052;-55
2023/09/01 12:43:05;;;;;;;15.70;9.88;;;;;;;;;;5048530;28;20021;-57
2023/09/01 12:45:32;;;;;;;17.20;10.20;;;;;;;;;;5048361;28;20025;-54
2023/09/01 12:47:59;;;;;;;15.85;9.55;;;;;;;;;;5048623;28;20117;-55
2023/09/01 12:50:26;;;;;;;17.50;10.33;;;;;;;;;;5048821;28;20052;-55
2023/09/01 12:52:52;;;;;;;17.67;10.25;;;;;;;;;;5048394;28;20092;-56
2023/09/01 12:55:18;;;;;;;17.02;9.82;;;;;;;;;;5047667;28;20179;-58
2023/09/01 12:57:44;;;;;;;15.68;9.63;;;;;;;;;;5049889;28;20032;-46
2023/09/01 13:00:10;;;;;;;17.40;9.65;;;;;;;;;;5050746;28;20017;-54
2023/09/01 13:02:37;;;;;;;16.42;10.52;;;;;;;;;;5064026;28;20040;-54
2023/09/01 13:05:03;;;;;;;16.58;9.40;;;;;;;;;;5070817;28;20033;-51
2023/09/01 13:07:29;;;;;;;16.67;9.50;;;;;;;;;;5054174;28;20097;-54
2023/09/01 13:09:55;;;;;;;17.15;9.50;;;;;;;;;;5051226;28;20505;-56
2023/09/01 13:12:21;;;;;;;17.25;9.70;;;;;;;;;;5051562;28;20107;-48
2023/09/01 13:14:47;;;;;;;17.20;9.45;;;;;;;;;;5050003;28;20489;-52
2023/09/01 13:17:13;;;;;;;16.77;10.23;;;;;;;;;;5051573;28;20094;-52
2023/09/01 13:19:39;;;;;;;16.75;9.63;;;;;;;;;;5051693;28;20025;-50
2023/09/01 13:22:05;;;;;;;17.02;10.00;;;;;;;;;;5051531;28;20021;-50
2023/09/01 13:24:31;;;;;;;15.88;9.80;;;;;;;;;;5049958;28;20028;-49
2023/09/01 13:26:57;;;;;;;15.48;9.20;;;;;;;;;;5051121;28;20017;-52
2023/09/01 13:29:23;;;;;;;16.05;9.93;;;;;;;;;;5049576;28;20025;-51
2023/09/01 13:31:49;;;;;;;21.52;10.27;;;;;;;;;;5050833;28;20022;-47
2023/09/01 13:34:15;;;;;;;16.10;9.75;;;;;;;;;;5049963;28;20025;-44
2023/09/01 13:36:41;;;;;;;16.65;9.23;;;;;;;;;;5032959;28;20025;-49
2023/09/01 13:39:07;;;;;;;16.42;9.80;;;;;;;;;;4695257;28;9999892;-49
2023/09/01 13:41:32;;;;;;;16.92;10.60;;;;;;;;;;5044771;28;20039;-53
2023/09/01 13:43:58;;;;;;;17.20;10.05;;;;;;;;;;5027526;28;20036;-52
2023/09/01 13:46:26;;;;;;;17.83;10.90;;;;;;;;;;5010204;28;20049;-47
2023/09/01 13:48:56;;;;;;;16.93;10.03;;;;;;;;;;5029154;28;20040;-54
2023/09/01 13:51:23;;;;;;;16.02;10.27;;;;;;;;;;5012602;28;20429;-49
2023/09/01 13:53:49;;;;;;;17.10;10.15;;;;;;;;;;5030820;28;20026;-50
2023/09/01 13:56:15;;;;;;;17.60;9.18;;;;;;;;;;5050328;28;20210;-52
2023/09/01 13:58:41;;;;;;;18.08;10.13;;;;;;;;;;5050801;28;20104;-51
2023/09/01 14:01:07;;;;;;;19.35;11.27;;;;;;;;;;5051721;28;20477;-54
2023/09/01 14:03:33;;;;;;;17.08;10.20;;;;;;;;;;5052033;28;20029;-55
2023/09/01 14:06:00;;;;;;;15.73;9.90;;;;;;;;;;5050647;28;20028;-48
2023/09/01 14:08:26;;;;;;;17.50;10.30;;;;;;;;;;5045082;28;20043;-55
2023/09/01 14:10:53;;;;;;;18.05;11.85;;;;;;;;;;5050620;28;20039;-50
2023/09/01 14:13:19;;;;;;;16.25;9.90;;;;;;;;;;5051297;28;20107;-51
2023/09/01 14:15:52;;;;;;;17.33;10.57;;;;;;;;;;5068862;28;20543;-55
2023/09/01 14:18:19;;;;;;;15.65;10.05;;;;;;;;;;4708245;28;10000258;-54
2023/09/01 14:20:45;;;;;;;17.27;10.82;;;;;;;;;;5045800;28;20408;-52